Flight Track Log - Related Links

Times and Time Zones

All times are in EDT time to prevent confusion due to time zone crossing. See the AWE1454 flight status page for this flight to view local times or setup timezone preferences in your user account.

Time Position Orientation Groundspeed Altitude Reporting Facility
EDT Latitude Longitude Course Direction KTS MPH feet Rate Location/Type
Sun 04:24:42 PM 39.8756 -75.2161 37° Northeast 133 153 1,100  Level FAA TRACON SMA TRACON (SMA)
Sun 04:25:02 PM 39.8725 -75.1981 102° East 164 189 1,500 1,171 Climbing FAA TRACON SMA TRACON (SMA)
Sun 04:25:23 PM 39.8683 -75.1725 102° East 211 243 1,900 1,902 Climbing FAA TRACON SMA TRACON (SMA)
Sun 04:25:43 PM 39.8653 -75.1494 100° East 207 238 2,800 2,615 Climbing FAA TRACON SMA TRACON (SMA)
Sun 04:26:02 PM 39.8625 -75.1269 99° East 208 239 3,600 2,769 Climbing FAA TRACON SMA TRACON (SMA)
Sun 04:26:22 PM 39.8561 -75.0942 104° East 243 280 4,600 3,000 Climbing FAA TRACON SMA TRACON (SMA)
Sun 04:26:42 PM 39.8519 -75.0672 101° East 248 285 5,600 3,300 Climbing FAA TRACON SMA TRACON (SMA)
Sun 04:27:00 PM 39.7891 -74.6943 37° Northeast  Level FlightAware Approximate
Sun 04:27:02 PM 39.8469 -75.0394 103° East 255 293 6,800  Level FAA TRACON SMA TRACON (SMA)
Sun 04:27:22 PM 39.8408 -75.0022 102° East 262 302 7,900 3,150 Climbing FAA TRACON SMA TRACON (SMA)
Sun 04:27:42 PM 39.8358 -74.9711 102° East 282 325 8,900 2,850 Climbing FAA TRACON SMA TRACON (SMA)
Sun 04:28:00 PM 39.8750 -74.6084 37° Northeast  Level FlightAware Approximate
Sun 04:28:02 PM 39.8308 -74.9403 102° East 287 330 9,800  Level FAA TRACON SMA TRACON (SMA)
Sun 04:28:22 PM 39.8239 -74.8989 102° East 298 343 10,800 1,950 Climbing FAA TRACON SMA TRACON (SMA)
Sun 04:28:42 PM 39.8181 -74.8631 102° East 320 368 11,100 1,350 Climbing FAA TRACON SMA TRACON (SMA)
Sun 04:29:00 PM 39.9644 -74.5357 37° Northeast  Level FlightAware Approximate
Sun 04:29:02 PM 39.8117 -74.8253 102° East 350 403 11,700  Level FAA TRACON SMA TRACON (SMA)
Sun 04:29:22 PM 39.8042 -74.7781 102° East 355 409 12,700 3,000 Climbing FAA TRACON SMA TRACON (SMA)
Sun 04:29:42 PM 39.8058 -74.7364 87° East 367 422 13,700 2,634 Climbing FAA TRACON SMA TRACON (SMA)
Sun 04:30:03 PM 39.8183 -74.7011 65° Northeast 375 432 14,500 2,780 Climbing FAA TRACON SMA TRACON (SMA)
Sun 04:30:23 PM 39.8467 -74.6631 46° Northeast 366 421 15,600 3,231 Climbing FAA TRACON SMA TRACON (SMA)
Sun 04:30:42 PM 39.8719 -74.6389 36° Northeast 369 425 16,600 2,462 Climbing FAA TRACON SMA TRACON (SMA)
Sun 04:31:02 PM 39.8978 -74.6142 36° Northeast 375 432 17,200 2,100 Climbing FAA TRACON SMA TRACON (SMA)
Sun 04:31:22 PM 39.9303 -74.5814 38° Northeast 381 438 18,000 900 Climbing FAA TRACON SMA TRACON (SMA)
Sun 04:31:42 PM 39.9506 -74.5619 36° Northeast 388 447 17,800 154 Descending FAA TRACON SMA TRACON (SMA)
Sun 04:32:01 PM 39.9633 -74.5492 37° Northeast 391 450 18,100 305 Climbing FAA TRACON SMA TRACON (SMA)
Sun 04:32:41 PM 39.9633 -74.5492 37° Northeast 391 450 18,100 1,899 Level FAA TRACON SMA TRACON (SMA)
Sun 04:34:39 PM 40.2281 -74.2833 37° Northeast 426 490 23,100 2,233 Climbing New York Center
Sun 04:35:41 PM 40.3311 -74.1825 37° Northeast 440 506 24,800 1,672 Climbing New York Center
Sun 04:36:41 PM 40.4439 -74.1008 29° Northeast 459 528 26,500 1,515 Climbing New York Center
Sun 04:39:03 PM 40.7406 -73.8808 29° Northeast 487 560 29,900 1,396 Climbing Boston Center
Sun 04:40:03 PM 40.8606 -73.7958 28° Northeast 487 560 31,200 1,250 Climbing Boston Center
Sun 04:41:03 PM 40.9881 -73.7681 North 472 543 32,400 900 Climbing Boston Center
Sun 04:42:03 PM 41.1169 -73.7872 354° North 455 524 33,000 300 Climbing Boston Center
Sun 04:43:03 PM 41.2500 -73.8039 355° North 453 521 33,000  Level Boston Center
Sun 04:44:03 PM 41.3833 -73.8122 357° North 465 535 33,000  Level Boston Center
Sun 04:45:03 PM 41.5167 -73.8153 359° North 476 548 33,000  Level Boston Center
Sun 04:46:03 PM 41.6500 -73.8236 357° North 476 548 33,000  Level Boston Center
Sun 04:47:03 PM 41.7814 -73.8208 North 476 548 33,000  Level Boston Center
Sun 04:48:03 PM 41.9125 -73.8211 360° North 471 542 33,000 -550 Level Boston Center
Sun 04:49:03 PM 42.0419 -73.8156 North 471 542 31,900 -2,100 Descending Boston Center
Sun 04:50:03 PM 42.1639 -73.7342 26° Northeast 467 537 28,800 -2,900 Descending Boston Center
Sun 04:51:03 PM 42.2447 -73.5758 55° Northeast 461 531 26,100 -2,650 Descending Boston Center
Sun 04:52:03 PM 42.3108 -73.4228 60° Northeast 461 531 23,500 -2,500 Descending Boston Center
Sun 04:53:03 PM 42.3744 -73.2747 60° Northeast 465 535 21,100 -2,150 Descending Boston Center
Sun 04:54:03 PM 42.4231 -73.1600 60° Northeast 454 522 19,200 -1,050 Descending Boston Center
Sun 04:55:03 PM 42.4844 -73.0144 60° Northeast 410 472 19,000 -100 Descending Boston Center
Sun 04:56:03 PM 42.5433 -72.8769 60° Northeast 415 478 19,000  Level Boston Center
Sun 04:57:15 PM 42.6022 -72.7447 59° Northeast 415 478 19,000 -682 Level Boston Center
Sun 04:58:15 PM 42.6544 -72.5728 68° East 404 465 17,500 -1,800 Descending Boston Center
Sun 04:59:15 PM 42.6900 -72.4372 70° East 393 452 15,400 -2,100 Descending Boston Center
Sun 05:00:15 PM 42.7256 -72.3072 70° East 377 434 13,300 -2,100 Descending Boston Center
Sun 05:01:15 PM 42.7564 -72.1828 71° East 350 403 11,200 -1,500 Descending Boston Center
Sun 05:02:15 PM 42.7644 -72.0556 85° East 324 373 10,300 -1,050 Descending Boston Center
Sun 05:03:15 PM 42.7661 -71.9564 89° East 299 344 9,100 -1,450 Descending Boston Center
Sun 05:04:15 PM 42.7697 -71.8433 87° East 273 314 7,400 -1,650 Descending Boston Center
Sun 05:05:15 PM 42.7733 -71.7444 87° East 267 307 5,800 -1,500 Descending Boston Center
Sun 05:06:15 PM 42.7789 -71.6453 86° East 267 307 4,400 -850 Descending Boston Center
Sun 05:07:15 PM 42.7825 -71.5575 87° East 245 282 4,100 -200 Descending Boston Center
Sun 05:08:15 PM 42.7861 -71.4756 87° East 222 255 4,000 -550 Descending Boston Center
Sun 05:09:15 PM 42.7981 -71.4100 76° East 190 219 3,000 -850 Descending Boston Center
Sun 05:10:15 PM 42.8308 -71.3700 42° Northeast 152 175 2,300 -700 Descending Boston Center

Login

Don't have an account? Register now (free) for customized features, flight alerts, and more!